Amlin, Ohio
Current Conditions -  °F | °C
As of 9:53 AM on Friday 28 Nov 2014 (Local Time) from KOSU Reporting Station
Broken Clouds Broken Clouds  
Wind Chill: 19°   Ceiling: 10000
Heat Index: 26°   Visibility: 10mi
Dew Point: 18°   Wind: 6mph
Humidity: 71%   Direction: 250°WSW
Pressure: 30.37"   Gusts: NA
Location:  40.08°N, 83.18°W
Report Text: KOSU 281453Z 25005KT 10SM BKN100 M03/M08 A3037 RMK AO2 SLP294 T10331078 50001
Loading
Personal Weather Stations






























Interactive Weather Map New forecast layout! Learn more

10-Day Weather Forecast

Advertisements
Track Severe Weather on mobile